Timeline UpdatesTrip UpdatesNews PostsPvt PostsTravel TipsAdmin PostsConv PostsFollowed PostsChat RequestsBlog PostsPNR Posts

Disclaimer
Search
 
 
Wed Apr 16, 2014 21:51:14 ISTHomeTrainsΣChainsAtlasPNRForumGalleryNewsFAQTripsMembersLoginFeedback
No Recent News for this Train
Other Trains in the News **new
Latest...
Shall run from BNW on 17th March, 2011. News Post# 19412
Wed Mar 16, 2011 (09:33PM)
⇐ Return Journey: Train# 54784

54783/Fazilka Rewari Passenger (UnReserved)

Sep 11 2013 (10:58PM)
Change Departure Station:
Change Arrival Station:
Post a Train Travel TipPost a Train Travel Tip **new
Post a Comment/Question/Picture/VideoPost a Comment/Question/Picture/Video
Pantry/Catering
???
RSA - Rake Sharing
Rake/Coach Composition
Loco
News    PNR    Forum    Time-Table    Availability    Fare Chart    Map    Arr/Dep History    Trips    Gallery    ΣChains    X/O    Timeline    
Travel Time: 11h 4m    51 halts    Distance: 374 km    Avg Speed: 33 km/hr
Type: Passenger
Zone: NWR/North Western
Departs @ 08:35 (Avg 2m late)
Platform# ???
SMTWTFS
Fazilka Junction/FKA 
Arrives @ 19:39 (Avg 12m late)
Platform# 1
SMTWTFS
Patuwas Mehrana/PUW 

51 halts. 51 intermediate Stations between Fazilka Junction and Patuwas Mehrana

Show ALL intermediate Stations  Show Old Time-Table

#CodeStation NameX/OArrivesAvgDepartsAvgHaltPFDay#KmSpeedElevZoneAddress
1FKA»Fazilka Junction (2)»  -08:35+2--10.076181mNRFazilka, Punjab
2CKLAChak Banwala  08:45+208:46+21m--112.741182mNRChimne Wala, Punjab
3CKAChak Pakhewala  08:52+208:53+21m--116.738183mNRChimne Wala, Punjab
4RRWRoranwalaX  09:02+609:03+61m--122.463188mNRJandwala Bhimeshah, Punjab
5LKWLakhewali (1)  09:11+609:13+102m1130.940194mNRCourt Rd, Punjab
6BSGRBhagsar  09:21+1009:22+101m--136.359197mNRRamgarh Chungha, Punjab
7BDBGBadhai Balamgarh Halt  09:27+1209:28+121m--141.250200mNRBadhai Balamgarh, Punjab
8MKSMuktsar  09:36+1209:38+122m1147.845199mNRMuktsar, Punjab
9CWNCharawan  09:47+1209:48+121m--154.634201mNRState Highway 16, Punjab
10JBWJhabelwali  09:52+1609:53+161m--156.956201mNRState Highway 16, Punjab
11BRWBariwala  09:59+1610:01+162m--162.452206mNRMandi Bariwala, Punjab
12WDJWanderjatana  10:11+1410:12+141m--171.134203mNRState Highway 16, Punjab
13KKPKot Kapura Junction (3)  10:28+1410:30+152m1180.1610mNRKotkapura, Punjab
14RLSRomana Albel Singh (1)  10:38+1710:40+172m1188.334208mNRKotkapura Jaitu Rd, Punjab
15AJTMAjitgill Matta (1)  10:46+1610:47+161m1191.747209mNRKotkapura Jaitu Rd, Punjab
16GJUTGangsar Jaitu (3)X  10:53+1610:55+182m--196.437207mNRJaitu, Punjab
17CBXChand Bhan  11:06+1511:08+152m--1103.156211mNRJaitu, Punjab
18GNAGoneana Bhai Jagta (3)  11:16+1511:18+152m--1110.520206mNRGoniana, Punjab
19BTIBathinda Junction (6)X  11:55+312:40+245m--1122.860208mNRBathinda, Punjab
20GHBGahri Bhagi  12:54+712:55+71m--1136.917205mNWRGahri Bhagi, Punjab
21SGAShergarh  13:02+613:03+71m--1138.931205mNWRBathinda, Punjab
22MKBHManwala Kot Bak  13:09+713:10+71m--1141.943208mNWRManwala Kot Bak, Punjab
23BNLSBangi Nihalsingh  13:15+613:16+61m--1145.552207mNWRBangi Nihalsingh, Punjab
24RMNRaman  13:22+613:23+71m--1150.744204mNWRRama Mandi, Punjab
25RKKRatangarh Kanakwal  13:31+713:32+81m--1156.649205mNWRRatangarh Kanakwal, Punjab
26KNLKalanwali  13:42+713:43+91m--1164.844206mNWRKalanwali, Haryana
27SCVSukhchain  13:53+813:54+81m--1172.159206mNWRSukhchain, Haryana
28BGDBara Gudah  14:02+814:03+91m--1180.150204mNWRBara Gudha, Haryana
29SSASirsaX  14:25+514:40+1315m--1198.340203mNWRSirsa, Haryana
30BJKNBajekan  14:47+1414:48+141m--1203.067203mNWRBajekan, Haryana
31SHNSuchan Kotli  14:57+1414:58+151m--1213.043205mNWRSuchan, Haryana
32JOKJodhka  15:04+1515:05+151m--1217.346205mNWRSirsa, Haryana
33DINGDing  15:12+1515:13+161m--1222.652206mNWRSirsa, Haryana
34MHULMehuwala Halt  15:22+1515:23+151m--1230.436210mNWRMehuwala Halt, Haryana
35BHTBhattu  15:29+1515:30+161m--1234.049212mNWRBhattu Kalan, Haryana
36KBKNKhabra Kalan  15:38+1615:39+161m--1240.565216mNWRKhabra Kalan, Haryana
37ADRMandi Adampur  15:49+1615:50+171m--1251.359210mNWRHisar, Haryana
38JKHIJakhod Khera  16:03+1816:04+191m--1264.146211mNWRJakhodlkhera, Haryana
39NKNNyoli Kalan  16:12+1816:13+181m--1270.249213mNWRNyoli Kalan, Haryana
40HSRHisar Junction (6)X  16:25+1817:10+1045m--1280.157215mNWRHisar, Haryana
41STDSatrod  17:21+1217:22+171m--1290.635215mNWRHisar, Haryana
42MAYRMayar  17:29+1717:30+171m--1294.756216mNWRMayar, Haryana
43HNSHansi (1)  17:39+1717:40+181m11303.238217mNWRHissar, Haryana
44AUNAurang Nagar  17:49+1817:50+181m--1309.050216mNWRAurang Nagar, Haryana
45JKZJitakheri  17:55+1817:56+201m--1313.254217mNWRBhiwani, Haryana
46BWKBawani KheraX  18:06+2118:08+242m--1322.135215mNWRBawani Khera, Haryana
47SUISui  18:17+1118:18+111m--1327.428216mNWRBhiwani, Haryana
48BNWBhiwani Junction (3)  18:45+1018:55+810m--1340.150216mNWRBhiwani, Haryana
49DZLDhana Ladanpur (1)X  19:02+1019:03+101m11345.967219mNWRDhana Ladanpur, Haryana
50MHUManheru (1)  19:10+1019:11+131m11353.744216mNWRBhiwani, Haryana
51FGHFatehgarh Haryana (1)  19:20+1219:21+121m11360.456217mNWRFatehgarh, Haryana
52CKDCharkhi Dadri (1)  19:28+1219:30+122m11367.049217mNWRDist. Bhiwani, Haryana
53PUW•Patuwas Mehrana (1)•  19:39+1219:40+121m11374.370226mNWRMehrana, Haryana
54JRLJharili (1)X  19:46+1219:47+131m11381.348234mNWRJhajjar, Haryana
55SDRASudharana (1)  19:57+1319:58+141m11389.449230mNWRSudharana, Haryana
56KSIKosli (1)  20:05+1420:06+161m11395.152236mNWRTumna Rd, Haryana
57NLQNangal Pathani Halt (1)  20:13+1620:14+161m11401.152231mNWRNangal Pathani, Haryana
58JTSJatusana (1)  20:19+1620:20+171m11405.555243mNWRNanagal Pathani Rd, Haryana
59KGBSKishangarh Balawas (1)  20:30+1620:31+171m11414.613240mNWRKishengarh, Haryana
60RERewari Junction (8)  21:10-1-81423.0-245mNWRRewari, Haryana
Scroll to Top
Scroll to Bottom